Time;durP1;ratioP1;P1;durP2;ratioP2;P2;SDS_P1;SDS_P2;PMS_P1;PMS_P2;Temp;Humidity;BMP_temperature;BMP_pressure;BME280_temperature;BME280_humidity;BME280_pressure;Samples;Min_cycle;Max_cycle;Signal;HPM_P1;HPM_P2
2023/09/15 00:00:20;;;;;;;;;;;23.10;57.10;;;;;;1565939;74;780;-68
2023/09/15 00:02:11;;;;;;;;;;;23.20;57.00;;;;;;1557431;74;1573;-68
2023/09/15 00:04:13;;;;;;;;;;;23.10;57.00;;;;;;1566360;74;786;-69
2023/09/15 00:06:16;;;;;;;;;;;23.10;57.00;;;;;;1535059;76;789;-68
2023/09/15 00:08:18;;;;;;;;;;;23.20;57.10;;;;;;1499028;77;1140;-68
2023/09/15 00:10:21;;;;;;;;;;;23.20;57.10;;;;;;1504652;77;787;-68
2023/09/15 00:12:23;;;;;;;;;;;23.10;57.00;;;;;;1540344;76;1911;-68
2023/09/15 00:14:25;;;;;;;;;;;23.20;57.10;;;;;;1506323;77;826;-68
2023/09/15 00:16:27;;;;;;;;;;;23.20;57.10;;;;;;1499995;77;747;-69
2023/09/15 00:18:29;;;;;;;;;;;23.20;57.00;;;;;;1540811;76;1198;-68
2023/09/15 00:20:31;;;;;;;;;;;23.20;57.00;;;;;;1500968;77;705;-69
2023/09/15 00:22:33;;;;;;;;;;;23.20;57.00;;;;;;1532236;76;772;-69
2023/09/15 00:24:35;;;;;;;;;;;23.10;57.00;;;;;;1534496;76;722;-69
2023/09/15 00:26:38;;;;;;;;;;;23.20;57.00;;;;;;1500347;77;920;-68
2023/09/15 00:28:40;;;;;;;;;;;23.10;57.00;;;;;;1492838;79;1112;-68
2023/09/15 00:30:42;;;;;;;;;;;23.20;56.90;;;;;;1518700;77;720;-69
2023/09/15 00:32:45;;;;;;;;;;;23.20;56.90;;;;;;1494925;77;1949;-68
2023/09/15 00:34:47;;;;;;;;;;;23.20;56.80;;;;;;1533695;76;771;-69
2023/09/15 00:36:49;;;;;;;;;;;23.10;56.90;;;;;;1531406;76;1589;-69
2023/09/15 00:38:51;;;;;;;;;;;23.20;57.00;;;;;;1537854;76;804;-68
2023/09/15 00:40:53;;;;;;;;;;;23.20;56.90;;;;;;1532232;76;762;-69
2023/09/15 00:42:55;;;;;;;;;;;23.20;56.90;;;;;;1525549;76;807;-69
2023/09/15 00:44:56;;;;;;;;;;;23.10;56.90;;;;;;1512206;77;746;-69
2023/09/15 00:46:58;;;;;;;;;;;23.20;56.90;;;;;;1532472;76;1261;-69
2023/09/15 00:49:00;;;;;;;;;;;23.10;56.90;;;;;;1535072;76;703;-69
2023/09/15 00:51:07;;;;;;;;;;;23.20;56.80;;;;;;1526547;76;710;-68
2023/09/15 00:53:08;;;;;;;;;;;23.20;56.80;;;;;;1511046;78;1945;-69
2023/09/15 00:55:10;;;;;;;;;;;23.20;56.70;;;;;;1500821;77;710;-69
2023/09/15 00:57:12;;;;;;;;;;;23.20;56.70;;;;;;1512608;77;1157;-69
2023/09/15 00:59:14;;;;;;;;;;;23.20;56.60;;;;;;1535262;76;754;-68
2023/09/15 01:01:16;;;;;;;;;;;23.10;56.70;;;;;;1506567;77;715;-70
2023/09/15 01:03:19;;;;;;;;;;;23.20;56.60;;;;;;1538440;76;648;-66
2023/09/15 01:05:28;;;;;;;;;;;23.10;56.60;;;;;;1540255;76;734;-69
2023/09/15 01:07:25;;;;;;;;;;;23.10;56.70;;;;;;1524664;76;1632;-68
2023/09/15 01:09:27;;;;;;;;;;;23.20;56.60;;;;;;1532300;76;694;-69
2023/09/15 01:11:31;;;;;;;;;;;23.20;56.60;;;;;;1501898;77;737;-68
2023/09/15 01:13:34;;;;;;;;;;;23.10;56.60;;;;;;1525859;76;742;-69
2023/09/15 01:15:38;;;;;;;;;;;23.10;56.50;;;;;;1531301;76;1241;-69
2023/09/15 01:17:47;;;;;;;;;;;23.20;56.50;;;;;;1498725;77;1162;-68
2023/09/15 01:20:09;;;;;;;;;;;23.20;56.50;;;;;;1534179;76;713;-68
2023/09/15 01:22:17;;;;;;;;;;;23.20;56.50;;;;;;1533496;76;1718;-68
2023/09/15 01:24:23;;;;;;;;;;;23.10;56.50;;;;;;1511995;78;1974;-69
2023/09/15 01:26:43;;;;;;;;;;;23.10;56.50;;;;;;1514075;77;755;-69
2023/09/15 01:29:00;;;;;;;;;;;23.20;56.50;;;;;;1528160;76;770;-69
2023/09/15 01:31:02;;;;;;;;;;;23.10;56.40;;;;;;1513874;78;732;-68
2023/09/15 01:33:05;;;;;;;;;;;23.10;56.40;;;;;;1502556;77;1933;-69
2023/09/15 01:35:07;;;;;;;;;;;23.20;56.40;;;;;;1515325;77;908;-68
2023/09/15 01:37:09;;;;;;;;;;;23.10;56.40;;;;;;1503372;77;1147;-68
2023/09/15 01:39:11;;;;;;;;;;;23.10;56.30;;;;;;1511972;77;818;-68
2023/09/15 01:41:12;;;;;;;;;;;23.10;56.30;;;;;;1530793;76;658;-69
2023/09/15 01:43:14;;;;;;;;;;;23.10;56.30;;;;;;1506377;77;735;-69
2023/09/15 01:45:16;;;;;;;;;;;23.20;56.30;;;;;;1501822;77;785;-68
2023/09/15 01:47:21;;;;;;;;;;;23.10;56.10;;;;;;1546530;76;1152;-69
2023/09/15 01:49:23;;;;;;;;;;;23.10;56.20;;;;;;1533953;76;693;-68
2023/09/15 01:51:25;;;;;;;;;;;23.20;56.20;;;;;;1503072;77;726;-70
2023/09/15 01:53:27;;;;;;;;;;;23.10;56.20;;;;;;1524835;77;1927;-69
2023/09/15 01:55:29;;;;;;;;;;;23.10;56.20;;;;;;1506639;77;736;-68
2023/09/15 01:57:31;;;;;;;;;;;23.10;56.10;;;;;;1523280;77;1162;-68
2023/09/15 01:59:34;;;;;;;;;;;23.10;56.20;;;;;;1525607;77;678;-68
2023/09/15 02:01:36;;;;;;;;;;;23.20;56.00;;;;;;1532831;77;739;-69
2023/09/15 02:03:38;;;;;;;;;;;23.10;56.10;;;;;;1529953;77;781;-68
2023/09/15 02:05:40;;;;;;;;;;;23.10;56.20;;;;;;1530146;77;708;-69
2023/09/15 02:07:41;;;;;;;;;;;23.10;56.20;;;;;;1524247;77;1129;-69
2023/09/15 02:09:44;;;;;;;;;;;23.10;56.00;;;;;;1522176;77;710;-68
2023/09/15 02:11:46;;;;;;;;;;;23.10;56.00;;;;;;1523519;77;844;-69
2023/09/15 02:13:48;;;;;;;;;;;23.10;56.00;;;;;;1507250;77;1935;-68
2023/09/15 02:15:53;;;;;;;;;;;23.10;56.00;;;;;;1519106;77;755;-68
2023/09/15 02:17:57;;;;;;;;;;;23.10;56.00;;;;;;1520890;77;1200;-68
2023/09/15 02:19:59;;;;;;;;;;;23.10;56.00;;;;;;1521580;76;757;-68
2023/09/15 02:22:00;;;;;;;;;;;23.10;56.00;;;;;;1510206;77;751;-68
2023/09/15 02:24:02;;;;;;;;;;;23.10;56.00;;;;;;1516901;77;743;-68
2023/09/15 02:26:04;;;;;;;;;;;23.10;55.90;;;;;;1518164;76;797;-68
2023/09/15 02:28:06;;;;;;;;;;;23.10;55.90;;;;;;1523526;76;1545;-68
2023/09/15 02:30:08;;;;;;;;;;;23.10;55.80;;;;;;1518059;77;799;-68
2023/09/15 02:32:10;;;;;;;;;;;23.10;55.80;;;;;;1518963;77;1930;-69
2023/09/15 02:34:12;;;;;;;;;;;23.10;55.80;;;;;;1522480;77;711;-68
2023/09/15 02:36:14;;;;;;;;;;;23.10;55.70;;;;;;1521176;76;692;-68
2023/09/15 02:38:16;;;;;;;;;;;23.10;55.70;;;;;;1512383;77;1133;-67
2023/09/15 02:40:18;;;;;;;;;;;23.10;55.70;;;;;;1520872;76;707;-69
2023/09/15 02:42:20;;;;;;;;;;;23.10;55.70;;;;;;1520129;77;810;-68
2023/09/15 02:44:22;;;;;;;;;;;23.10;55.70;;;;;;1519059;77;750;-68
2023/09/15 02:46:24;;;;;;;;;;;23.00;55.60;;;;;;1510390;76;807;-67
2023/09/15 02:48:26;;;;;;;;;;;23.10;55.70;;;;;;1522122;77;1151;-69
2023/09/15 02:50:28;;;;;;;;;;;23.10;55.70;;;;;;1513881;77;670;-69
2023/09/15 02:52:31;;;;;;;;;;;23.00;55.50;;;;;;1523491;78;1936;-68
2023/09/15 02:54:32;;;;;;;;;;;23.10;55.70;;;;;;1525507;78;720;-69
2023/09/15 02:56:34;;;;;;;;;;;23.00;55.50;;;;;;1517709;77;775;-67
2023/09/15 02:58:36;;;;;;;;;;;23.10;55.60;;;;;;1507608;77;1101;-70
2023/09/15 03:00:38;;;;;;;;;;;23.00;55.40;;;;;;1519668;77;693;-68
2023/09/15 03:02:40;;;;;;;;;;;23.10;55.60;;;;;;1522780;76;753;-68
2023/09/15 03:04:44;;;;;;;;;;;23.00;55.40;;;;;;1517216;77;767;-69
2023/09/15 03:06:47;;;;;;;;;;;23.00;55.40;;;;;;1522177;77;1134;-68
2023/09/15 03:08:49;;;;;;;;;;;23.10;55.60;;;;;;1522258;77;729;-68
2023/09/15 03:10:51;;;;;;;;;;;23.00;55.40;;;;;;1517294;76;793;-69
2023/09/15 03:12:53;;;;;;;;;;;23.10;55.50;;;;;;1520181;77;1932;-69
2023/09/15 03:14:55;;;;;;;;;;;23.00;55.40;;;;;;1520611;77;719;-68
2023/09/15 03:16:57;;;;;;;;;;;23.10;55.50;;;;;;1523549;76;1128;-69
2023/09/15 03:18:59;;;;;;;;;;;23.10;55.50;;;;;;1524159;76;839;-67
2023/09/15 03:21:02;;;;;;;;;;;23.10;55.50;;;;;;1514118;78;772;-69
2023/09/15 03:23:04;;;;;;;;;;;23.00;55.30;;;;;;1522463;77;722;-67
2023/09/15 03:25:06;;;;;;;;;;;23.10;55.50;;;;;;1524578;77;1562;-68
2023/09/15 03:27:08;;;;;;;;;;;23.00;55.30;;;;;;1524026;78;1182;-68
2023/09/15 03:29:10;;;;;;;;;;;23.00;55.40;;;;;;1523738;78;786;-68
2023/09/15 03:31:12;;;;;;;;;;;23.10;55.50;;;;;;1516406;76;714;-68
2023/09/15 03:33:14;;;;;;;;;;;23.00;55.30;;;;;;1513565;78;1938;-68
2023/09/15 03:35:16;;;;;;;;;;;23.00;55.30;;;;;;1518988;77;831;-69
2023/09/15 03:37:18;;;;;;;;;;;23.00;55.20;;;;;;1521367;77;1126;-69
2023/09/15 03:39:20;;;;;;;;;;;23.00;55.30;;;;;;1523418;78;810;-68
2023/09/15 03:41:24;;;;;;;;;;;23.00;55.20;;;;;;1521258;77;714;-68
2023/09/15 03:43:25;;;;;;;;;;;23.00;55.20;;;;;;1521819;77;699;-68
2023/09/15 03:45:28;;;;;;;;;;;23.00;55.20;;;;;;1514543;77;784;-69
2023/09/15 03:47:30;;;;;;;;;;;23.00;55.20;;;;;;1516211;77;1194;-69
2023/09/15 03:49:33;;;;;;;;;;;23.10;55.30;;;;;;1523600;77;740;-69
2023/09/15 03:51:35;;;;;;;;;;;23.00;55.20;;;;;;1521316;77;730;-68
2023/09/15 03:53:37;;;;;;;;;;;23.00;55.10;;;;;;1516322;77;1944;-68
2023/09/15 03:55:39;;;;;;;;;;;23.00;55.20;;;;;;1523687;78;728;-68
2023/09/15 03:57:41;;;;;;;;;;;23.00;55.20;;;;;;1515598;77;1144;-65
2023/09/15 03:59:43;;;;;;;;;;;23.00;55.20;;;;;;1519965;77;821;-68
2023/09/15 04:01:47;;;;;;;;;;;23.00;55.20;;;;;;1518255;77;686;-67
2023/09/15 04:03:48;;;;;;;;;;;23.00;55.20;;;;;;1520418;78;1835;-69
2023/09/15 04:05:50;;;;;;;;;;;23.00;55.20;;;;;;1519831;77;701;-69
2023/09/15 04:07:52;;;;;;;;;;;23.00;55.10;;;;;;1524960;78;1132;-69
2023/09/15 04:09:56;;;;;;;;;;;23.00;55.10;;;;;;1519085;77;795;-69
2023/09/15 04:11:58;;;;;;;;;;;22.90;55.00;;;;;;1518503;78;1689;-69
2023/09/15 04:13:59;;;;;;;;;;;23.00;55.10;;;;;;1520006;76;1937;-68
2023/09/15 04:16:01;;;;;;;;;;;23.00;55.10;;;;;;1516431;76;809;-65
2023/09/15 04:18:07;;;;;;;;;;;23.00;55.10;;;;;;1521168;76;1116;-69
2023/09/15 04:20:11;;;;;;;;;;;23.00;54.70;;;;;;1521862;76;1622;-68
2023/09/15 04:22:13;;;;;;;;;;;23.00;54.90;;;;;;1517632;77;1640;-68
2023/09/15 04:24:15;;;;;;;;;;;22.90;54.80;;;;;;1521452;76;813;-69
2023/09/15 04:26:17;;;;;;;;;;;22.90;54.90;;;;;;1512662;77;657;-66
2023/09/15 04:28:19;;;;;;;;;;;22.90;55.00;;;;;;1508979;77;1160;-69
2023/09/15 04:30:21;;;;;;;;;;;22.90;55.00;;;;;;1517595;78;750;-68
2023/09/15 04:32:23;;;;;;;;;;;22.90;55.00;;;;;;1522974;78;703;-67
2023/09/15 04:34:25;;;;;;;;;;;22.90;54.90;;;;;;1524478;76;1913;-68
2023/09/15 04:36:27;;;;;;;;;;;22.90;55.00;;;;;;1516453;76;668;-67
2023/09/15 04:38:30;;;;;;;;;;;23.00;54.90;;;;;;1518679;76;1107;-68
2023/09/15 04:40:32;;;;;;;;;;;22.90;54.90;;;;;;1524426;77;707;-68
2023/09/15 04:42:34;;;;;;;;;;;23.00;54.90;;;;;;1521861;77;793;-69
2023/09/15 04:44:36;;;;;;;;;;;22.90;54.90;;;;;;1519430;77;786;-68
2023/09/15 04:46:38;;;;;;;;;;;23.00;54.90;;;;;;1523072;78;801;-68
2023/09/15 04:48:40;;;;;;;;;;;22.90;54.80;;;;;;1519635;77;1116;-68
2023/09/15 04:50:42;;;;;;;;;;;22.90;54.60;;;;;;1515555;78;815;-67
2023/09/15 04:52:44;;;;;;;;;;;22.90;54.60;;;;;;1517074;77;766;-68
2023/09/15 04:54:46;;;;;;;;;;;22.90;54.60;;;;;;1524051;76;1936;-68
2023/09/15 04:56:48;;;;;;;;;;;22.90;54.40;;;;;;1521823;76;1144;-69
2023/09/15 04:58:51;;;;;;;;;;;22.90;54.50;;;;;;1518770;77;749;-68
2023/09/15 05:00:55;;;;;;;;;;;22.90;54.70;;;;;;1523464;76;806;-68
2023/09/15 05:02:57;;;;;;;;;;;22.90;54.60;;;;;;1522626;77;1862;-69
2023/09/15 05:04:59;;;;;;;;;;;22.80;54.50;;;;;;1514913;77;875;-68
2023/09/15 05:07:01;;;;;;;;;;;22.80;54.50;;;;;;1518678;78;1144;-68
2023/09/15 05:09:06;;;;;;;;;;;22.80;54.50;;;;;;1531891;76;811;-68
2023/09/15 05:11:06;;;;;;;;;;;22.80;54.50;;;;;;1515564;77;1682;-68
2023/09/15 05:13:08;;;;;;;;;;;22.80;54.60;;;;;;1568032;74;1938;-68
2023/09/15 05:15:10;;;;;;;;;;;22.80;54.50;;;;;;1567482;74;799;-68
2023/09/15 05:17:12;;;;;;;;;;;22.80;54.70;;;;;;1568619;74;1538;-68
2023/09/15 05:19:14;;;;;;;;;;;22.70;54.50;;;;;;1570190;74;820;-68
2023/09/15 05:21:16;;;;;;;;;;;22.80;54.70;;;;;;1568683;74;853;-68
2023/09/15 05:23:18;;;;;;;;;;;22.80;54.40;;;;;;1568869;74;671;-68
2023/09/15 05:25:20;;;;;;;;;;;22.80;54.70;;;;;;1569300;74;700;-67
2023/09/15 05:27:22;;;;;;;;;;;22.80;54.60;;;;;;1568592;74;1195;-67
2023/09/15 05:29:24;;;;;;;;;;;22.80;54.70;;;;;;1569587;74;824;-66
2023/09/15 05:31:26;;;;;;;;;;;22.80;54.50;;;;;;1566125;74;761;-67
2023/09/15 05:33:28;;;;;;;;;;;22.80;54.70;;;;;;1556872;74;1918;-68
2023/09/15 05:35:30;;;;;;;;;;;22.70;54.80;;;;;;1568465;74;773;-68
2023/09/15 05:37:32;;;;;;;;;;;22.80;54.50;;;;;;1570363;74;1124;-67
2023/09/15 05:39:34;;;;;;;;;;;22.70;54.70;;;;;;1565822;74;729;-67
2023/09/15 05:41:35;;;;;;;;;;;22.80;54.70;;;;;;1572830;74;749;-68
2023/09/15 05:43:37;;;;;;;;;;;22.80;54.60;;;;;;1568855;74;725;-68
2023/09/15 05:45:39;;;;;;;;;;;22.80;54.70;;;;;;1566374;74;579;-67
2023/09/15 05:47:41;;;;;;;;;;;22.70;54.70;;;;;;1562404;74;1134;-68
2023/09/15 05:49:43;;;;;;;;;;;22.80;54.80;;;;;;1566231;74;607;-68
2023/09/15 05:51:46;;;;;;;;;;;22.70;54.70;;;;;;1566835;74;761;-67
2023/09/15 05:53:48;;;;;;;;;;;22.80;54.80;;;;;;1569608;74;1920;-68
2023/09/15 05:55:50;;;;;;;;;;;22.80;54.80;;;;;;1569147;74;686;-69
2023/09/15 05:57:51;;;;;;;;;;;22.70;54.90;;;;;;1570344;74;1140;-68
2023/09/15 05:59:54;;;;;;;;;;;22.80;54.70;;;;;;1572594;74;652;-66
2023/09/15 06:01:56;;;;;;;;;;;22.80;54.90;;;;;;1566366;74;619;-68
2023/09/15 06:03:59;;;;;;;;;;;22.80;55.00;;;;;;1563239;74;812;-68
2023/09/15 06:06:01;;;;;;;;;;;22.80;55.00;;;;;;1569729;74;788;-68
2023/09/15 06:08:03;;;;;;;;;;;22.80;55.00;;;;;;1559564;74;1129;-68
2023/09/15 06:10:06;;;;;;;;;;;22.80;55.00;;;;;;1564822;74;709;-67
2023/09/15 06:12:08;;;;;;;;;;;22.80;55.00;;;;;;1568282;74;703;-68
2023/09/15 06:14:10;;;;;;;;;;;22.70;55.10;;;;;;1568903;74;1940;-68
2023/09/15 06:16:12;;;;;;;;;;;22.80;55.10;;;;;;1566141;74;699;-68
2023/09/15 06:18:14;;;;;;;;;;;22.80;55.00;;;;;;1565352;74;1130;-68
2023/09/15 06:20:16;;;;;;;;;;;22.80;55.10;;;;;;1563558;74;833;-69
2023/09/15 06:22:18;;;;;;;;;;;22.80;55.10;;;;;;1570760;74;780;-68
2023/09/15 06:24:20;;;;;;;;;;;22.80;55.10;;;;;;1566187;74;716;-68
2023/09/15 06:26:21;;;;;;;;;;;22.80;55.20;;;;;;1562142;74;703;-67
2023/09/15 06:28:23;;;;;;;;;;;22.80;55.30;;;;;;1567017;74;1161;-67
2023/09/15 06:30:25;;;;;;;;;;;22.80;55.30;;;;;;1549711;74;790;-68
2023/09/15 06:32:27;;;;;;;;;;;22.80;55.30;;;;;;1570659;74;740;-68
2023/09/15 06:34:29;;;;;;;;;;;22.70;55.30;;;;;;1574657;74;1922;-68
2023/09/15 06:36:31;;;;;;;;;;;22.80;55.40;;;;;;1567666;74;600;-69
2023/09/15 06:38:33;;;;;;;;;;;22.70;55.50;;;;;;1559135;74;1112;-68
2023/09/15 06:40:35;;;;;;;;;;;22.80;55.50;;;;;;1573178;74;811;-67
2023/09/15 06:42:37;;;;;;;;;;;22.80;55.50;;;;;;1568335;74;759;-69
2023/09/15 06:44:39;;;;;;;;;;;22.70;55.50;;;;;;1569319;74;843;-68
2023/09/15 06:46:41;;;;;;;;;;;22.70;55.50;;;;;;1561453;74;739;-69
2023/09/15 06:48:43;;;;;;;;;;;22.80;55.60;;;;;;1569340;74;1131;-69
2023/09/15 06:50:45;;;;;;;;;;;22.80;55.60;;;;;;1557758;74;728;-68
2023/09/15 06:52:47;;;;;;;;;;;22.80;55.70;;;;;;1567125;74;759;-68
2023/09/15 06:54:49;;;;;;;;;;;22.80;55.60;;;;;;1564496;74;1934;-68
2023/09/15 06:56:51;;;;;;;;;;;22.80;55.70;;;;;;1563606;74;1111;-68
2023/09/15 06:58:53;;;;;;;;;;;22.70;55.70;;;;;;1569850;74;727;-68
2023/09/15 07:00:55;;;;;;;;;;;22.80;55.80;;;;;;1574111;74;592;-68
2023/09/15 07:02:57;;;;;;;;;;;22.80;55.80;;;;;;1570524;74;874;-69
2023/09/15 07:04:59;;;;;;;;;;;22.70;55.80;;;;;;1559977;74;767;-66
2023/09/15 07:07:01;;;;;;;;;;;22.80;55.80;;;;;;1564631;74;1147;-68
2023/09/15 07:09:03;;;;;;;;;;;22.90;56.00;;;;;;1570129;74;735;-68
2023/09/15 07:11:05;;;;;;;;;;;22.90;56.00;;;;;;1569089;74;1551;-68
2023/09/15 07:13:07;;;;;;;;;;;22.70;55.90;;;;;;1569245;74;788;-68
2023/09/15 07:15:09;;;;;;;;;;;22.70;55.90;;;;;;1570038;74;1930;-68
2023/09/15 07:17:11;;;;;;;;;;;22.80;56.00;;;;;;1559941;74;1138;-68
2023/09/15 07:19:13;;;;;;;;;;;22.80;56.00;;;;;;1569258;74;738;-69
2023/09/15 07:21:15;;;;;;;;;;;22.80;56.00;;;;;;1553609;74;802;-68
2023/09/15 07:23:17;;;;;;;;;;;22.80;56.00;;;;;;1569682;74;711;-68
2023/09/15 07:25:18;;;;;;;;;;;22.80;56.10;;;;;;1565237;74;719;-68
2023/09/15 07:27:20;;;;;;;;;;;22.70;56.10;;;;;;1570007;74;1183;-69
2023/09/15 07:29:23;;;;;;;;;;;22.80;56.20;;;;;;1565066;74;738;-68
2023/09/15 07:31:25;;;;;;;;;;;22.80;56.30;;;;;;1558639;74;675;-68
2023/09/15 07:33:27;;;;;;;;;;;22.70;56.20;;;;;;1569315;74;758;-68
2023/09/15 07:35:29;;;;;;;;;;;22.80;56.30;;;;;;1559793;74;1945;-68
2023/09/15 07:37:31;;;;;;;;;;;22.80;56.30;;;;;;1571659;74;1153;-68
2023/09/15 07:39:32;;;;;;;;;;;22.70;56.30;;;;;;1558944;74;787;-67
2023/09/15 07:41:34;;;;;;;;;;;22.80;56.30;;;;;;1561191;74;691;-68
2023/09/15 07:43:36;;;;;;;;;;;22.70;56.20;;;;;;1569004;74;706;-68
2023/09/15 07:45:38;;;;;;;;;;;22.70;56.30;;;;;;1570643;74;764;-68
2023/09/15 07:47:40;;;;;;;;;;;22.70;56.30;;;;;;1567558;74;1141;-68
2023/09/15 07:49:42;;;;;;;;;;;22.80;56.20;;;;;;1563019;74;815;-69
2023/09/15 07:51:45;;;;;;;;;;;22.70;56.30;;;;;;1567211;74;726;-68
2023/09/15 07:53:47;;;;;;;;;;;22.70;56.30;;;;;;1563998;74;675;-68
2023/09/15 07:55:49;;;;;;;;;;;22.70;56.40;;;;;;1576252;74;1923;-68
2023/09/15 07:57:51;;;;;;;;;;;22.70;56.30;;;;;;1570544;74;1136;-68
2023/09/15 07:59:53;;;;;;;;;;;22.70;56.30;;;;;;1566409;74;689;-68
2023/09/15 08:01:56;;;;;;;;;;;22.70;56.40;;;;;;1567323;74;724;-67
2023/09/15 08:03:57;;;;;;;;;;;22.70;56.50;;;;;;1570534;74;743;-68
2023/09/15 08:05:59;;;;;;;;;;;22.70;56.50;;;;;;1569076;74;1527;-68
2023/09/15 08:08:01;;;;;;;;;;;22.60;56.50;;;;;;1570142;74;1140;-68
2023/09/15 08:10:04;;;;;;;;;;;22.60;56.40;;;;;;1558046;74;759;-67
2023/09/15 08:12:06;;;;;;;;;;;22.70;56.50;;;;;;1570581;74;801;-69
2023/09/15 08:14:08;;;;;;;;;;;22.70;56.50;;;;;;1568924;74;1934;-68
2023/09/15 08:16:10;;;;;;;;;;;22.70;56.50;;;;;;1567875;74;694;-68
2023/09/15 08:18:12;;;;;;;;;;;22.80;56.50;;;;;;1566015;74;1094;-68
2023/09/15 08:20:14;;;;;;;;;;;22.60;56.40;;;;;;1567406;74;831;-68
2023/09/15 08:22:16;;;;;;;;;;;22.80;56.50;;;;;;1569198;74;756;-68
2023/09/15 08:24:20;;;;;;;;;;;22.80;56.50;;;;;;1566223;74;733;-67
2023/09/15 08:26:21;;;;;;;;;;;22.70;56.50;;;;;;1565379;74;1940;-68
2023/09/15 08:28:23;;;;;;;;;;;22.70;56.50;;;;;;1566423;74;1170;-69
2023/09/15 08:30:25;;;;;;;;;;;22.80;56.50;;;;;;1565559;74;705;-68
2023/09/15 08:32:27;;;;;;;;;;;22.70;56.50;;;;;;1565189;74;791;-68
2023/09/15 08:34:29;;;;;;;;;;;22.80;56.50;;;;;;1570656;74;1942;-68
2023/09/15 08:36:31;;;;;;;;;;;22.70;56.50;;;;;;1559533;74;742;-68
2023/09/15 08:38:32;;;;;;;;;;;22.70;56.50;;;;;;1559459;74;1170;-68
2023/09/15 08:40:39;;;;;;;;;;;22.80;56.50;;;;;;1572031;74;773;-68
2023/09/15 08:42:38;;;;;;;;;;;22.70;56.50;;;;;;1565226;74;1464;-68
2023/09/15 08:44:40;;;;;;;;;;;22.70;56.50;;;;;;1561600;74;660;-67
2023/09/15 08:46:43;;;;;;;;;;;22.70;56.60;;;;;;1570250;74;727;-68
2023/09/15 08:48:46;;;;;;;;;;;22.80;56.60;;;;;;1569235;74;1113;-68
2023/09/15 08:50:48;;;;;;;;;;;22.70;56.60;;;;;;1572338;74;596;-69
2023/09/15 08:52:50;;;;;;;;;;;22.80;56.60;;;;;;1570262;74;683;-69
2023/09/15 08:54:52;;;;;;;;;;;22.80;56.60;;;;;;1569451;74;1902;-68
2023/09/15 08:56:54;;;;;;;;;;;22.70;56.60;;;;;;1567361;74;1167;-68
2023/09/15 08:58:56;;;;;;;;;;;22.70;56.70;;;;;;1566912;74;725;-68
2023/09/15 09:00:58;;;;;;;;;;;22.70;56.70;;;;;;1570420;74;710;-68
2023/09/15 09:03:00;;;;;;;;;;;22.80;56.70;;;;;;1566508;74;1519;-68
2023/09/15 09:05:03;;;;;;;;;;;22.80;56.60;;;;;;1568651;74;722;-68
2023/09/15 09:07:05;;;;;;;;;;;22.70;56.70;;;;;;1566748;74;1132;-69
2023/09/15 09:09:07;;;;;;;;;;;22.80;56.70;;;;;;1572506;74;715;-68
2023/09/15 09:11:09;;;;;;;;;;;22.70;56.70;;;;;;1572228;74;815;-68
2023/09/15 09:13:11;;;;;;;;;;;22.80;56.70;;;;;;1568942;74;784;-68
2023/09/15 09:15:13;;;;;;;;;;;22.80;56.70;;;;;;1566430;74;1923;-68
2023/09/15 09:17:15;;;;;;;;;;;22.80;56.70;;;;;;1569172;74;1135;-68
2023/09/15 09:19:17;;;;;;;;;;;22.80;56.70;;;;;;1569477;74;751;-68
2023/09/15 09:21:21;;;;;;;;;;;22.80;56.70;;;;;;1570665;74;732;-67
2023/09/15 09:23:22;;;;;;;;;;;22.80;56.70;;;;;;1569429;74;1946;-67
2023/09/15 09:25:25;;;;;;;;;;;22.80;56.70;;;;;;1570070;74;682;-68
2023/09/15 09:27:34;;;;;;;;;;;22.80;56.80;;;;;;1570446;74;1145;-68
2023/09/15 09:29:35;;;;;;;;;;;22.80;56.80;;;;;;1560564;74;758;-68
2023/09/15 09:31:39;;;;;;;;;;;22.70;56.80;;;;;;1562544;74;732;-69
2023/09/15 09:33:41;;;;;;;;;;;22.80;56.80;;;;;;1573681;74;794;-67
2023/09/15 09:35:43;;;;;;;;;;;22.80;56.80;;;;;;1567831;74;1908;-68
2023/09/15 09:37:45;;;;;;;;;;;22.80;56.80;;;;;;1562710;74;1164;-68
2023/09/15 09:39:47;;;;;;;;;;;22.80;56.80;;;;;;1563931;74;717;-68
2023/09/15 09:41:49;;;;;;;;;;;22.80;56.90;;;;;;1567402;74;682;-68
2023/09/15 09:43:51;;;;;;;;;;;22.80;56.80;;;;;;1564228;74;665;-68
2023/09/15 09:45:53;;;;;;;;;;;22.70;56.80;;;;;;1565699;74;719;-69
2023/09/15 09:47:55;;;;;;;;;;;22.80;56.80;;;;;;1558790;74;1175;-69
2023/09/15 09:49:57;;;;;;;;;;;22.90;57.00;;;;;;1559754;74;843;-68
2023/09/15 09:51:59;;;;;;;;;;;22.70;56.80;;;;;;1564765;74;671;-68
2023/09/15 09:54:01;;;;;;;;;;;22.80;56.80;;;;;;1565961;74;779;-68
2023/09/15 09:56:05;;;;;;;;;;;22.90;56.90;;;;;;1567740;74;1922;-70
2023/09/15 09:58:07;;;;;;;;;;;22.80;56.80;;;;;;1568499;74;1558;-68
2023/09/15 10:00:18;;;;;;;;;;;22.80;56.80;;;;;;1568703;74;741;-68
2023/09/15 10:02:15;;;;;;;;;;;22.90;57.00;;;;;;1566602;74;1613;-69
2023/09/15 10:04:20;;;;;;;;;;;22.80;56.80;;;;;;1563966;74;816;-67
2023/09/15 10:06:21;;;;;;;;;;;22.80;56.90;;;;;;1564742;74;1694;-68
2023/09/15 10:08:23;;;;;;;;;;;22.80;56.80;;;;;;1567745;74;1132;-66
2023/09/15 10:10:25;;;;;;;;;;;22.90;56.90;;;;;;1565527;74;689;-69
2023/09/15 10:12:27;;;;;;;;;;;22.90;56.90;;;;;;1563810;74;806;-68
2023/09/15 10:14:29;;;;;;;;;;;22.90;57.00;;;;;;1560183;74;748;-69
2023/09/15 10:16:33;;;;;;;;;;;22.90;57.10;;;;;;1565909;74;1950;-68
2023/09/15 10:18:35;;;;;;;;;;;22.90;57.10;;;;;;1568580;74;1259;-67
2023/09/15 10:20:37;;;;;;;;;;;22.90;57.00;;;;;;1566432;74;710;-68
2023/09/15 10:22:39;;;;;;;;;;;22.90;57.00;;;;;;1561164;74;724;-67
2023/09/15 10:24:48;;;;;;;;;;;22.90;57.00;;;;;;1568247;74;815;-68
2023/09/15 10:26:49;;;;;;;;;;;22.90;57.00;;;;;;1570002;74;1161;-68
2023/09/15 10:28:51;;;;;;;;;;;22.90;57.00;;;;;;1537711;76;1147;-69
2023/09/15 10:30:55;;;;;;;;;;;22.90;57.10;;;;;;1570294;74;721;-68
2023/09/15 10:32:58;;;;;;;;;;;22.90;57.00;;;;;;1561252;74;732;-67
2023/09/15 10:35:00;;;;;;;;;;;22.90;57.00;;;;;;1563714;74;1935;-68
2023/09/15 10:37:02;;;;;;;;;;;22.90;56.90;;;;;;1567215;74;1180;-68
2023/09/15 10:39:12;;;;;;;;;;;22.90;56.90;;;;;;1570483;74;726;-66
2023/09/15 10:41:29;;;;;;;;;;;23.00;56.90;;;;;;1552345;74;744;-68
2023/09/15 10:43:31;;;;;;;;;;;22.90;56.90;;;;;;1524190;76;799;-68
2023/09/15 10:45:33;;;;;;;;;;;22.90;57.00;;;;;;1537644;76;776;-68
2023/09/15 10:47:35;;;;;;;;;;;23.00;57.00;;;;;;1534054;76;1130;-66
2023/09/15 10:49:37;;;;;;;;;;;22.90;56.90;;;;;;1519697;76;776;-69
2023/09/15 10:51:40;;;;;;;;;;;22.90;56.90;;;;;;1508564;77;1153;-68
2023/09/15 10:53:43;;;;;;;;;;;23.00;57.00;;;;;;1552356;75;1151;-68
2023/09/15 10:55:45;;;;;;;;;;;23.00;57.00;;;;;;1568924;74;1934;-68
2023/09/15 10:57:47;;;;;;;;;;;23.00;57.00;;;;;;1567494;74;1141;-68
2023/09/15 10:59:49;;;;;;;;;;;22.90;57.00;;;;;;1559814;74;771;-68
2023/09/15 11:01:51;;;;;;;;;;;23.00;57.20;;;;;;1565821;74;775;-67
2023/09/15 11:03:52;;;;;;;;;;;23.10;57.30;;;;;;1569014;74;737;-68
2023/09/15 11:05:55;;;;;;;;;;;23.00;57.10;;;;;;1564101;74;784;-68
2023/09/15 11:07:57;;;;;;;;;;;23.00;57.10;;;;;;1565898;74;1124;-68
2023/09/15 11:09:59;;;;;;;;;;;23.00;57.10;;;;;;1570700;74;726;-68
2023/09/15 11:12:03;;;;;;;;;;;23.00;57.10;;;;;;1573953;74;586;-68
2023/09/15 11:14:05;;;;;;;;;;;23.00;57.10;;;;;;1569401;74;563;-68
2023/09/15 11:16:10;;;;;;;;;;;23.00;57.10;;;;;;1569192;74;1913;-70
2023/09/15 11:18:13;;;;;;;;;;;23.00;57.50;;;;;;1569482;74;1078;-68
2023/09/15 11:20:15;;;;;;;;;;;23.00;57.30;;;;;;1567559;74;735;-69
2023/09/15 11:22:17;;;;;;;;;;;23.00;57.30;;;;;;1574876;74;877;-69
2023/09/15 11:24:19;;;;;;;;;;;23.00;57.30;;;;;;1569519;74;737;-68
2023/09/15 11:26:21;;;;;;;;;;;23.00;57.30;;;;;;1568285;74;752;-67
2023/09/15 11:28:23;;;;;;;;;;;23.00;57.30;;;;;;1562389;74;1124;-67
2023/09/15 11:30:26;;;;;;;;;;;23.00;57.20;;;;;;1563988;74;743;-68
2023/09/15 11:32:28;;;;;;;;;;;23.00;57.40;;;;;;1561180;74;736;-69
2023/09/15 11:34:30;;;;;;;;;;;23.00;57.70;;;;;;1570718;74;786;-68
2023/09/15 11:36:35;;;;;;;;;;;23.00;57.50;;;;;;1568401;74;1953;-68
2023/09/15 11:38:36;;;;;;;;;;;23.00;57.40;;;;;;1557132;74;1760;-68
2023/09/15 11:40:38;;;;;;;;;;;23.00;57.50;;;;;;1570838;74;773;-68
2023/09/15 11:42:39;;;;;;;;;;;23.10;57.60;;;;;;1571855;74;740;-68
2023/09/15 11:44:43;;;;;;;;;;;23.00;57.50;;;;;;1569070;74;761;-68
2023/09/15 11:46:46;;;;;;;;;;;23.00;57.50;;;;;;1569132;75;787;-68
2023/09/15 11:48:48;;;;;;;;;;;23.00;57.40;;;;;;1576370;74;709;-67
2023/09/15 11:50:50;;;;;;;;;;;23.10;57.60;;;;;;1562268;74;1410;-68
2023/09/15 11:52:53;;;;;;;;;;;23.10;57.70;;;;;;1573047;74;780;-68
2023/09/15 11:54:54;;;;;;;;;;;23.10;57.50;;;;;;1569299;74;743;-66
2023/09/15 11:56:57;;;;;;;;;;;23.10;57.50;;;;;;1557495;74;1951;-68
2023/09/15 11:58:59;;;;;;;;;;;23.10;57.40;;;;;;1566770;74;697;-66
2023/09/15 12:01:01;;;;;;;;;;;23.10;57.40;;;;;;1552652;74;734;-68
2023/09/15 12:03:06;;;;;;;;;;;23.00;57.30;;;;;;1568170;74;740;-68
2023/09/15 12:05:07;;;;;;;;;;;23.00;57.30;;;;;;1563016;74;1651;-69
2023/09/15 12:07:09;;;;;;;;;;;23.10;57.60;;;;;;1567534;74;1160;-68
2023/09/15 12:09:12;;;;;;;;;;;23.10;57.40;;;;;;1569655;74;804;-68